KMUI

Details ICAO KMUI (MUI)
Name MUIR AAF
Region United States
Timezone America/New_York (UTC-5.0)
Plans Departing 2
Arriving 0
Stats Elevation 489 ft / 149 m (AMSL)
Location 40.435220° -76.568977°
Runways 1
Magnetic Variation 11.442° W
Sunrise 2017-12-12 12:21:43 UTC / 2017-12-12 07:21:43 Local
Sunset 2017-12-12 21:41:21 UTC / 2017-12-12 16:41:21 Local
Advertisement - Login to hide

Runways

ID Width Length Bearing (true) Bearing (mag) Surface Threshold Offset Overrun Length
07 100 ft / 30 m 3,962 ft / 1,208 m 59.58° 71.02° Asphalt 400 ft / 122 m 0 ft / 0 m
25 100 ft / 30 m 3,962 ft / 1,208 m 239.59° 251.03° Asphalt 100 ft / 30 m 340 ft / 104 m

Map

Weather


0- 5 10 15 20 25 30 35+ Temperature / ° C

Clouds and Precipitation
Forecast for 2017-12-12 18:00 UTC. Updated an hour ago

Ground ~20,000 ft ~40,000 ft Winds

METAR

KMUI 121556Z AUTO 00000KT 10SM FEW190 04/01 A2952 RMK AO2 SLP003 T00430013 $

TAF

Not found

Frequencies

Unicom 126.20 MHz CTAF
Tower 126.20 MHz TWR
Ground 121.62 MHz GND
Approach 118.25 MHz HARRISBURG APP/DEP
Warning: Do not use this data for real-world aviation or navigation. No guarantee of current accuracy is given.